Macy, Indiana
Current Conditions -  °F | °C
As of 6:15 AM on Sunday 23 Nov 2014 (Local Time) from KRCR Reporting Station
Broken Clouds Broken Clouds  
Wind Chill: 45°   Ceiling: 4600
Heat Index: 48°   Visibility: 10mi
Dew Point: 43°   Wind: 7mph
Humidity: 82%   Direction: 170°S
Pressure: 29.87"   Gusts: NA
Location:  40.96°N, 86.13°W
Report Text: KRCR 231115Z AUTO 17006KT 10SM SCT007 SCT013 BKN046 09/06 A2987 RMK AO2
Loading
Personal Weather Stations






























Interactive Weather Map New forecast layout! Learn more

10-Day Weather Forecast

Advertisements
Track Severe Weather on mobile